createdAt,value
2023-06-19T00:01:49.112Z,26.55
2023-06-19T00:04:16.637Z,26.54
2023-06-19T00:06:43.968Z,26.55
2023-06-19T00:09:11.283Z,26.54
2023-06-19T00:11:38.677Z,26.55
2023-06-19T00:14:06.026Z,26.54
2023-06-19T00:16:33.981Z,26.54
2023-06-19T00:19:01.340Z,26.54
2023-06-19T00:21:28.877Z,26.53
2023-06-19T00:23:56.704Z,26.55
2023-06-19T00:26:24.614Z,26.54
2023-06-19T00:28:55.056Z,26.54
2023-06-19T00:31:23.088Z,26.54
2023-06-19T00:33:51.571Z,26.53
2023-06-19T00:36:22.502Z,26.54
2023-06-19T00:38:50.140Z,26.53
2023-06-19T00:41:18.146Z,26.53
2023-06-19T00:43:45.821Z,26.52
2023-06-19T00:46:13.559Z,26.52
2023-06-19T00:48:41.003Z,26.52
2023-06-19T00:51:08.766Z,26.54
2023-06-19T00:53:36.722Z,26.52
2023-06-19T00:56:04.737Z,26.53
2023-06-19T00:58:32.320Z,26.51
2023-06-19T01:01:08.083Z,26.52
2023-06-19T01:03:37.680Z,26.51
2023-06-19T01:06:15.448Z,26.52
2023-06-19T01:09:06.522Z,26.50
2023-06-19T01:11:39.428Z,26.51
2023-06-19T01:14:19.776Z,26.50
2023-06-19T01:16:48.648Z,26.50
2023-06-19T01:19:21.066Z,26.51
2023-06-19T01:21:51.304Z,26.50
2023-06-19T01:24:18.908Z,26.50
2023-06-19T01:26:46.956Z,26.49
2023-06-19T01:29:16.586Z,26.50
2023-06-19T01:31:59.779Z,26.50
2023-06-19T01:34:29.726Z,26.50
2023-06-19T01:36:58.299Z,26.50
2023-06-19T01:39:26.708Z,26.48
2023-06-19T01:41:56.528Z,26.50
2023-06-19T01:44:25.251Z,26.49
2023-06-19T01:46:52.852Z,26.48
2023-06-19T01:49:20.990Z,26.48
2023-06-19T01:51:48.376Z,26.47
2023-06-19T01:54:15.781Z,26.47
2023-06-19T01:56:43.248Z,26.48
2023-06-19T01:59:10.649Z,26.47
2023-06-19T02:01:38.012Z,26.48
2023-06-19T02:04:05.639Z,26.48
2023-06-19T02:06:33.119Z,26.49
2023-06-19T02:09:00.469Z,26.48
2023-06-19T02:11:27.826Z,26.49
2023-06-19T02:13:55.978Z,26.49
2023-06-19T02:16:23.442Z,26.49
2023-06-19T02:18:50.947Z,26.49
2023-06-19T02:21:18.261Z,26.49
2023-06-19T02:23:45.692Z,26.50
2023-06-19T02:26:13.008Z,26.50
2023-06-19T02:28:40.299Z,26.50
2023-06-19T02:31:07.636Z,26.51
2023-06-19T02:33:34.926Z,26.49
2023-06-19T02:36:02.989Z,26.51
2023-06-19T02:38:30.809Z,26.50
2023-06-19T02:41:04.033Z,26.50
2023-06-19T02:43:31.385Z,26.50
2023-06-19T02:45:58.695Z,26.50
2023-06-19T02:48:25.933Z,26.50
2023-06-19T02:50:54.685Z,26.49
2023-06-19T02:53:22.223Z,26.49
2023-06-19T02:55:49.523Z,26.49
2023-06-19T02:58:16.857Z,26.50
2023-06-19T03:00:44.520Z,26.49
2023-06-19T03:03:12.854Z,26.48
2023-06-19T03:05:40.186Z,26.48
2023-06-19T03:08:08.193Z,26.47
2023-06-19T03:10:36.880Z,26.47
2023-06-19T03:13:04.209Z,26.47
2023-06-19T03:15:33.531Z,26.46
2023-06-19T03:18:04.453Z,26.47
2023-06-19T03:20:32.691Z,26.46
2023-06-19T03:23:03.221Z,26.46
2023-06-19T03:25:35.858Z,26.46
2023-06-19T03:28:04.187Z,26.46
2023-06-19T03:30:31.915Z,26.46
2023-06-19T03:32:59.723Z,26.45
2023-06-19T03:35:41.850Z,26.45
2023-06-19T03:38:13.630Z,26.44
2023-06-19T03:40:42.132Z,26.44
2023-06-19T03:43:12.861Z,26.44
2023-06-19T03:45:40.453Z,26.45
2023-06-19T03:48:07.935Z,26.44
2023-06-19T03:50:35.510Z,26.44
2023-06-19T03:53:03.016Z,26.44
2023-06-19T03:55:30.290Z,26.44
2023-06-19T03:57:57.706Z,26.43
2023-06-19T04:00:25.346Z,26.43
2023-06-19T04:02:53.174Z,26.43
2023-06-19T04:05:21.056Z,26.43
2023-06-19T04:07:48.477Z,26.42
2023-06-19T04:10:16.075Z,26.43
2023-06-19T04:12:43.652Z,26.42
2023-06-19T04:15:11.357Z,26.43
2023-06-19T04:17:38.689Z,26.42
2023-06-19T04:20:13.044Z,26.41
2023-06-19T04:22:41.761Z,26.42
2023-06-19T04:25:11.551Z,26.42
2023-06-19T04:27:39.005Z,26.41
2023-06-19T04:30:21.322Z,26.42
2023-06-19T04:32:48.841Z,26.42
2023-06-19T04:35:16.341Z,26.42
2023-06-19T04:37:43.658Z,26.41
2023-06-19T04:40:12.196Z,26.41
2023-06-19T04:42:41.128Z,26.41
2023-06-19T04:45:09.070Z,26.41
2023-06-19T04:47:51.735Z,26.41
2023-06-19T04:50:20.904Z,26.39
2023-06-19T04:52:51.530Z,26.41
2023-06-19T04:55:19.435Z,26.41
2023-06-19T04:57:46.750Z,26.41
2023-06-19T05:00:16.526Z,26.39
2023-06-19T05:02:46.052Z,26.39
2023-06-19T05:05:13.870Z,26.41
2023-06-19T05:07:41.802Z,26.39
2023-06-19T05:10:10.005Z,26.40
2023-06-19T05:12:37.358Z,26.39
2023-06-19T05:15:05.008Z,26.40
2023-06-19T05:17:32.407Z,26.40
2023-06-19T05:20:00.093Z,26.39
2023-06-19T05:22:28.030Z,26.40
2023-06-19T05:24:55.495Z,26.41
2023-06-19T05:27:22.873Z,26.39
2023-06-19T05:29:50.179Z,26.41
2023-06-19T05:32:17.503Z,26.39
2023-06-19T05:34:44.801Z,26.40
2023-06-19T05:37:12.156Z,26.41
2023-06-19T05:39:39.507Z,26.40
2023-06-19T05:42:07.629Z,26.40
2023-06-19T05:44:34.843Z,26.41
2023-06-19T05:47:02.309Z,26.41
2023-06-19T05:49:30.225Z,26.40
2023-06-19T05:52:00.294Z,26.41
2023-06-19T05:54:28.292Z,26.41
2023-06-19T05:56:55.634Z,26.41
2023-06-19T05:59:22.966Z,26.41
2023-06-19T06:01:51.903Z,26.40
2023-06-19T06:04:19.679Z,26.41
2023-06-19T06:06:46.987Z,26.40
2023-06-19T06:09:15.678Z,26.41
2023-06-19T06:11:43.318Z,26.41
2023-06-19T06:14:13.156Z,26.41
2023-06-19T06:16:40.908Z,26.41
2023-06-19T06:19:08.278Z,26.42
2023-06-19T06:21:36.020Z,26.42
2023-06-19T06:24:04.056Z,26.42
2023-06-19T06:26:31.454Z,26.42
2023-06-19T06:28:58.732Z,26.41
2023-06-19T06:31:26.120Z,26.42
2023-06-19T06:33:53.442Z,26.41
2023-06-19T06:36:34.075Z,26.42
2023-06-19T06:39:04.072Z,26.42
2023-06-19T06:41:31.367Z,26.42
2023-06-19T06:43:58.802Z,26.43
2023-06-19T06:46:26.264Z,26.45
2023-06-19T06:48:54.176Z,26.47
2023-06-19T06:51:23.239Z,26.50
2023-06-19T06:53:51.952Z,26.51
2023-06-19T06:56:21.921Z,26.49
2023-06-19T06:58:49.271Z,26.50
2023-06-19T07:01:16.706Z,26.49
2023-06-19T07:03:44.408Z,26.50
2023-06-19T07:06:11.759Z,26.54
2023-06-19T07:08:41.858Z,26.57
2023-06-19T07:11:09.264Z,26.60
2023-06-19T07:13:36.608Z,26.62
2023-06-19T07:16:06.142Z,26.63
2023-06-19T07:18:34.727Z,26.65
2023-06-19T07:21:03.986Z,26.66
2023-06-19T07:23:31.249Z,26.67
2023-06-19T07:25:58.808Z,26.67
2023-06-19T07:28:26.394Z,26.68
2023-06-19T07:30:53.797Z,26.69
2023-06-19T07:33:21.306Z,26.69
2023-06-19T07:35:48.748Z,26.69
2023-06-19T07:38:17.521Z,26.68
2023-06-19T07:40:45.045Z,26.67
2023-06-19T07:43:12.537Z,26.66
2023-06-19T07:45:39.878Z,26.67
2023-06-19T07:48:07.422Z,26.70
2023-06-19T07:50:34.834Z,26.69
2023-06-19T07:53:02.129Z,26.67
2023-06-19T07:55:29.989Z,26.69
2023-06-19T07:57:58.012Z,26.71
2023-06-19T08:00:26.152Z,26.72
2023-06-19T08:02:54.088Z,26.72
2023-06-19T08:05:21.518Z,26.71
2023-06-19T08:07:49.242Z,26.73
2023-06-19T08:10:16.641Z,26.73
2023-06-19T08:12:44.967Z,26.71
2023-06-19T08:15:14.885Z,26.70
2023-06-19T08:17:43.264Z,26.68
2023-06-19T08:20:11.296Z,26.69
2023-06-19T08:22:38.583Z,26.67
2023-06-19T08:25:06.758Z,26.66
2023-06-19T08:27:34.092Z,26.65
2023-06-19T08:30:01.472Z,26.64
2023-06-19T08:32:28.932Z,26.63
2023-06-19T08:34:56.419Z,26.66
2023-06-19T08:37:23.807Z,26.68
2023-06-19T08:39:51.242Z,26.68
2023-06-19T08:42:18.650Z,26.70
2023-06-19T08:44:46.812Z,26.71
2023-06-19T08:47:14.093Z,26.72
2023-06-19T08:49:41.863Z,26.71
2023-06-19T08:52:09.553Z,26.71
2023-06-19T08:54:45.497Z,26.70
2023-06-19T08:57:16.240Z,26.70
2023-06-19T08:59:52.878Z,26.73
2023-06-19T09:02:21.140Z,26.73
2023-06-19T09:04:48.527Z,26.74
2023-06-19T09:07:16.059Z,26.73
2023-06-19T09:09:49.830Z,26.74
2023-06-19T09:12:18.948Z,26.74
2023-06-19T09:14:55.771Z,26.75
2023-06-19T09:17:23.200Z,26.76
2023-06-19T09:19:57.129Z,26.78
2023-06-19T09:22:26.455Z,26.76
2023-06-19T09:24:54.011Z,26.76
2023-06-19T09:27:21.952Z,26.76
2023-06-19T09:29:51.355Z,26.75
2023-06-19T09:32:23.194Z,26.76
2023-06-19T09:34:54.026Z,26.79
2023-06-19T09:37:26.861Z,26.82
2023-06-19T09:39:59.466Z,26.84
2023-06-19T09:42:36.274Z,26.84
2023-06-19T09:45:16.340Z,26.86
2023-06-19T09:47:50.318Z,26.85
2023-06-19T09:50:18.929Z,26.85
2023-06-19T09:52:52.607Z,26.82
2023-06-19T09:55:20.740Z,26.80
2023-06-19T09:57:49.759Z,26.78
2023-06-19T10:00:23.304Z,26.77
2023-06-19T10:02:51.469Z,26.76
2023-06-19T10:05:29.896Z,26.73
2023-06-19T10:08:00.955Z,26.73
2023-06-19T10:10:32.156Z,26.71
2023-06-19T10:13:12.769Z,26.70
2023-06-19T10:15:44.844Z,26.71
2023-06-19T10:18:17.466Z,26.71
2023-06-19T10:20:46.425Z,26.70
2023-06-19T10:23:19.672Z,26.75
2023-06-19T10:26:00.011Z,26.75
2023-06-19T10:28:32.081Z,26.76
2023-06-19T10:31:07.185Z,26.78
2023-06-19T10:33:37.807Z,26.77
2023-06-19T10:36:19.101Z,26.78
2023-06-19T10:38:48.803Z,26.77
2023-06-19T10:41:23.742Z,26.78
2023-06-19T10:43:59.468Z,26.77
2023-06-19T10:46:34.598Z,26.75
2023-06-19T10:49:05.258Z,26.74
2023-06-19T10:51:36.266Z,26.74
2023-06-19T10:54:03.964Z,26.74
2023-06-19T10:56:31.331Z,26.74
2023-06-19T10:59:07.304Z,26.74
2023-06-19T11:01:39.400Z,26.73
2023-06-19T11:04:08.750Z,26.73
2023-06-19T11:06:37.833Z,26.73
2023-06-19T11:09:06.778Z,26.73
2023-06-19T11:11:38.070Z,26.74
2023-06-19T11:14:06.120Z,26.72
2023-06-19T11:16:34.638Z,26.72
2023-06-19T11:19:02.673Z,26.70
2023-06-19T11:21:37.912Z,26.70
2023-06-19T11:24:07.440Z,26.71
2023-06-19T11:26:38.869Z,26.72
2023-06-19T11:29:24.161Z,26.73
2023-06-19T11:31:52.496Z,26.76
2023-06-19T11:34:24.339Z,26.77
2023-06-19T11:36:54.395Z,26.80
2023-06-19T11:39:23.182Z,26.81
2023-06-19T11:41:52.180Z,26.79
2023-06-19T11:44:22.436Z,26.76
2023-06-19T11:46:50.554Z,26.73
2023-06-19T11:49:21.770Z,26.75
2023-06-19T11:51:49.375Z,26.82
2023-06-19T11:54:17.004Z,26.86
2023-06-19T11:56:44.688Z,26.88
2023-06-19T11:59:12.245Z,26.86
2023-06-19T12:01:39.943Z,26.95
2023-06-19T12:04:08.005Z,26.94
2023-06-19T12:06:36.787Z,26.95
2023-06-19T12:09:05.893Z,26.97
2023-06-19T12:11:33.487Z,27.03
2023-06-19T12:14:01.501Z,27.01
2023-06-19T12:16:29.720Z,26.99
2023-06-19T12:18:57.148Z,26.96
2023-06-19T12:21:35.038Z,26.92
2023-06-19T12:24:05.672Z,26.91
2023-06-19T12:26:37.547Z,26.89
2023-06-19T12:29:05.568Z,26.88
2023-06-19T12:31:33.817Z,26.90
2023-06-19T12:34:10.306Z,26.88
2023-06-19T12:36:41.268Z,26.90
2023-06-19T12:39:15.962Z,26.88
2023-06-19T12:41:43.270Z,26.88
2023-06-19T12:44:11.075Z,26.90
2023-06-19T12:46:38.731Z,26.92
2023-06-19T12:49:06.624Z,26.94
2023-06-19T12:51:35.193Z,26.94
2023-06-19T12:54:02.571Z,26.94
2023-06-19T12:56:31.074Z,26.95
2023-06-19T12:58:58.544Z,26.94
2023-06-19T13:01:25.953Z,26.93
2023-06-19T13:03:53.710Z,26.93
2023-06-19T13:06:21.132Z,26.94
2023-06-19T13:08:48.501Z,26.93
2023-06-19T13:11:15.789Z,26.94
2023-06-19T13:13:43.203Z,26.93
2023-06-19T13:16:13.070Z,26.93
2023-06-19T13:18:42.053Z,26.94
2023-06-19T13:21:09.390Z,26.96
2023-06-19T13:23:36.848Z,26.95
2023-06-19T13:26:04.378Z,26.96
2023-06-19T13:28:31.830Z,26.96
2023-06-19T13:30:59.328Z,26.97
2023-06-19T13:33:27.120Z,26.97
2023-06-19T13:35:54.630Z,26.97
2023-06-19T13:38:22.509Z,26.99
2023-06-19T13:40:49.889Z,27.00
2023-06-19T13:43:17.777Z,27.00
2023-06-19T13:45:45.193Z,27.00
2023-06-19T13:48:12.443Z,27.02
2023-06-19T13:50:39.716Z,27.01
2023-06-19T13:53:07.060Z,27.03
2023-06-19T13:55:34.352Z,27.04
2023-06-19T13:58:01.865Z,27.06
2023-06-19T14:00:29.279Z,27.07
2023-06-19T14:02:56.632Z,27.08
2023-06-19T14:05:24.080Z,27.08
2023-06-19T14:07:53.140Z,27.09
2023-06-19T14:10:20.420Z,27.10
2023-06-19T14:12:47.692Z,27.09
2023-06-19T14:15:15.086Z,27.11
2023-06-19T14:17:42.641Z,27.13
2023-06-19T14:20:12.349Z,27.14
2023-06-19T14:22:39.708Z,27.13
2023-06-19T14:25:07.339Z,27.14
2023-06-19T14:27:34.977Z,27.15
2023-06-19T14:30:02.357Z,27.15
2023-06-19T14:32:29.685Z,27.16
2023-06-19T14:34:56.977Z,27.16
2023-06-19T14:37:24.297Z,27.16
2023-06-19T14:39:51.705Z,27.16
2023-06-19T14:42:19.083Z,27.16
2023-06-19T14:44:46.373Z,27.17
2023-06-19T14:47:13.878Z,27.18
2023-06-19T14:49:41.441Z,27.18
2023-06-19T14:52:09.108Z,27.19
2023-06-19T14:54:36.419Z,27.20
2023-06-19T14:57:03.872Z,27.20
2023-06-19T14:59:31.830Z,27.21
2023-06-19T15:01:59.245Z,27.21
2023-06-19T15:04:26.784Z,27.21
2023-06-19T15:06:54.154Z,27.22
2023-06-19T15:09:21.595Z,27.22
2023-06-19T15:11:48.880Z,27.22
2023-06-19T15:14:16.272Z,27.23
2023-06-19T15:16:43.623Z,27.24
2023-06-19T15:19:11.051Z,27.25
2023-06-19T15:21:38.606Z,27.24
2023-06-19T15:24:08.232Z,27.25
2023-06-19T15:26:39.104Z,27.26
2023-06-19T15:29:07.425Z,27.26
2023-06-19T15:31:34.759Z,27.27
2023-06-19T15:34:02.189Z,27.28
2023-06-19T15:36:29.580Z,27.27
2023-06-19T15:38:56.935Z,27.28
2023-06-19T15:41:24.824Z,27.29
2023-06-19T15:43:52.940Z,27.30
2023-06-19T15:46:20.273Z,27.31
2023-06-19T15:48:48.087Z,27.30
2023-06-19T15:51:15.505Z,27.30
2023-06-19T15:53:42.817Z,27.31
2023-06-19T15:56:10.314Z,27.31
2023-06-19T15:58:37.732Z,27.31
2023-06-19T16:01:05.107Z,27.31
2023-06-19T16:03:34.219Z,27.32
2023-06-19T16:06:07.696Z,27.33
2023-06-19T16:08:36.153Z,27.34
2023-06-19T16:11:06.212Z,27.35
2023-06-19T16:13:33.780Z,27.34
2023-06-19T16:16:01.160Z,27.35
2023-06-19T16:18:28.538Z,27.34
2023-06-19T16:20:56.104Z,27.34
2023-06-19T16:23:23.497Z,27.35
2023-06-19T16:25:50.761Z,27.36
2023-06-19T16:28:18.059Z,27.36
2023-06-19T16:30:45.366Z,27.37
2023-06-19T16:33:12.718Z,27.36
2023-06-19T16:35:40.057Z,27.37
2023-06-19T16:38:07.388Z,27.38
2023-06-19T16:40:34.832Z,27.38
2023-06-19T16:43:02.254Z,27.39
2023-06-19T16:45:29.588Z,27.39
2023-06-19T16:47:57.023Z,27.39
2023-06-19T16:50:24.638Z,27.39
2023-06-19T16:52:52.206Z,27.39
2023-06-19T16:55:23.290Z,27.40
2023-06-19T16:57:54.060Z,27.41
2023-06-19T17:00:21.704Z,27.40
2023-06-19T17:02:51.072Z,27.42
2023-06-19T17:05:18.873Z,27.41
2023-06-19T17:07:46.539Z,27.41
2023-06-19T17:10:16.327Z,27.43
2023-06-19T17:12:44.155Z,27.42
2023-06-19T17:15:12.268Z,27.41
2023-06-19T17:17:39.643Z,27.41
2023-06-19T17:20:10.011Z,27.42
2023-06-19T17:22:37.371Z,27.41
2023-06-19T17:25:05.058Z,27.42
2023-06-19T17:27:32.386Z,27.41
2023-06-19T17:29:59.808Z,27.42
2023-06-19T17:32:27.079Z,27.42
2023-06-19T17:34:54.308Z,27.43
2023-06-19T17:37:22.872Z,27.42
2023-06-19T17:39:50.244Z,27.42
2023-06-19T17:42:17.598Z,27.42
2023-06-19T17:44:45.108Z,27.44
2023-06-19T17:47:13.993Z,27.44
2023-06-19T17:49:41.355Z,27.43
2023-06-19T17:52:08.793Z,27.44
2023-06-19T17:54:36.441Z,27.43
2023-06-19T17:57:04.166Z,27.44
2023-06-19T17:59:31.575Z,27.45
2023-06-19T18:01:58.892Z,27.45
2023-06-19T18:04:26.329Z,27.45
2023-06-19T18:06:53.677Z,27.47
2023-06-19T18:09:21.034Z,27.46
2023-06-19T18:11:48.350Z,27.45
2023-06-19T18:14:15.705Z,27.43
2023-06-19T18:16:44.080Z,27.40
2023-06-19T18:19:11.504Z,27.40
2023-06-19T18:21:38.709Z,27.39
2023-06-19T18:24:06.361Z,27.39
2023-06-19T18:26:33.720Z,27.38
2023-06-19T18:29:01.241Z,27.37
2023-06-19T18:31:28.531Z,27.36
2023-06-19T18:33:56.763Z,27.36
2023-06-19T18:36:25.328Z,27.35
2023-06-19T18:38:52.829Z,27.34
2023-06-19T18:41:20.133Z,27.35
2023-06-19T18:43:47.440Z,27.36
2023-06-19T18:46:14.854Z,27.37
2023-06-19T18:48:42.814Z,27.37
2023-06-19T18:51:10.038Z,27.38
2023-06-19T18:53:37.464Z,27.37
2023-06-19T18:56:04.918Z,27.36
2023-06-19T18:58:32.183Z,27.38
2023-06-19T19:00:59.525Z,27.38
2023-06-19T19:03:27.579Z,27.39
2023-06-19T19:05:55.011Z,27.37
2023-06-19T19:08:24.055Z,27.39
2023-06-19T19:10:51.380Z,27.38
2023-06-19T19:13:18.674Z,27.39
2023-06-19T19:15:45.997Z,27.39
2023-06-19T19:18:13.338Z,27.41
2023-06-19T19:20:40.755Z,27.42
2023-06-19T19:23:08.217Z,27.43
2023-06-19T19:25:35.566Z,27.44
2023-06-19T19:28:02.925Z,27.45
2023-06-19T19:30:30.468Z,27.48
2023-06-19T19:32:58.178Z,27.48
2023-06-19T19:35:25.618Z,27.50
2023-06-19T19:37:53.374Z,27.51
2023-06-19T19:40:20.769Z,27.50
2023-06-19T19:42:48.117Z,27.51
2023-06-19T19:45:15.474Z,27.51
2023-06-19T19:47:42.901Z,27.52
2023-06-19T19:50:12.439Z,27.52
2023-06-19T19:52:39.828Z,27.53
2023-06-19T19:55:07.439Z,27.53
2023-06-19T19:57:34.839Z,27.55
2023-06-19T20:00:02.778Z,27.53
2023-06-19T20:02:33.995Z,27.53
2023-06-19T20:05:01.376Z,27.50
2023-06-19T20:07:28.814Z,27.49
2023-06-19T20:09:56.180Z,27.46
2023-06-19T20:12:23.510Z,27.47
2023-06-19T20:14:50.900Z,27.48
2023-06-19T20:17:18.216Z,27.50
2023-06-19T20:19:45.549Z,27.49
2023-06-19T20:22:13.175Z,27.49
2023-06-19T20:24:40.640Z,27.49
2023-06-19T20:27:08.171Z,27.50
2023-06-19T20:29:35.623Z,27.51
2023-06-19T20:32:02.964Z,27.50
2023-06-19T20:34:30.406Z,27.47
2023-06-19T20:36:57.833Z,27.43
2023-06-19T20:39:26.004Z,27.42
2023-06-19T20:41:53.368Z,27.40
2023-06-19T20:44:20.754Z,27.39
2023-06-19T20:46:49.753Z,27.39
2023-06-19T20:49:17.201Z,27.39
2023-06-19T20:51:44.522Z,27.37
2023-06-19T20:54:12.102Z,27.37
2023-06-19T20:56:39.452Z,27.36
2023-06-19T20:59:06.917Z,27.36
2023-06-19T21:01:34.404Z,27.34
2023-06-19T21:04:02.733Z,27.32
2023-06-19T21:06:30.943Z,27.31
2023-06-19T21:09:00.470Z,27.32
2023-06-19T21:11:28.012Z,27.31
2023-06-19T21:13:55.371Z,27.31
2023-06-19T21:16:22.835Z,27.31
2023-06-19T21:18:50.366Z,27.30
2023-06-19T21:21:17.733Z,27.27
2023-06-19T21:23:45.043Z,27.27
2023-06-19T21:26:12.282Z,27.26
2023-06-19T21:28:39.599Z,27.26
2023-06-19T21:31:06.904Z,27.26
2023-06-19T21:33:34.273Z,27.28
2023-06-19T21:36:01.740Z,27.31
2023-06-19T21:38:29.189Z,27.33
2023-06-19T21:40:56.535Z,27.35
2023-06-19T21:43:23.866Z,27.36
2023-06-19T21:45:51.514Z,27.35
2023-06-19T21:48:18.907Z,27.36
2023-06-19T21:50:46.347Z,27.37
2023-06-19T21:53:14.247Z,27.37
2023-06-19T21:55:41.594Z,27.38
2023-06-19T21:58:08.963Z,27.39
2023-06-19T22:00:36.384Z,27.40
2023-06-19T22:03:05.307Z,27.40
2023-06-19T22:05:32.748Z,27.40
2023-06-19T22:08:00.011Z,27.40
2023-06-19T22:10:27.605Z,27.40
2023-06-19T22:12:55.158Z,27.41
2023-06-19T22:15:22.427Z,27.41
2023-06-19T22:17:49.784Z,27.41
2023-06-19T22:20:19.173Z,27.41
2023-06-19T22:22:47.095Z,27.41
2023-06-19T22:25:15.770Z,27.43
2023-06-19T22:27:45.548Z,27.42
2023-06-19T22:30:15.339Z,27.44
2023-06-19T22:32:43.448Z,27.44
2023-06-19T22:35:10.926Z,27.42
2023-06-19T22:37:39.030Z,27.39
2023-06-19T22:40:08.658Z,27.37
2023-06-19T22:42:39.434Z,27.36
2023-06-19T22:45:10.838Z,27.36
2023-06-19T22:47:41.796Z,27.35
2023-06-19T22:50:10.987Z,27.34
2023-06-19T22:52:38.719Z,27.34
2023-06-19T22:55:06.587Z,27.34
2023-06-19T22:57:36.024Z,27.34
2023-06-19T23:00:14.667Z,27.35
2023-06-19T23:02:43.266Z,27.33
2023-06-19T23:05:12.175Z,27.33
2023-06-19T23:07:40.865Z,27.33
2023-06-19T23:10:11.540Z,27.32
2023-06-19T23:12:38.934Z,27.32
2023-06-19T23:15:10.048Z,27.31
2023-06-19T23:17:37.530Z,27.31
2023-06-19T23:20:10.819Z,27.31
2023-06-19T23:22:38.578Z,27.31
2023-06-19T23:25:06.064Z,27.31
2023-06-19T23:27:35.454Z,27.31
2023-06-19T23:30:02.902Z,27.30
2023-06-19T23:32:30.325Z,27.30
2023-06-19T23:35:00.075Z,27.29
2023-06-19T23:37:27.963Z,27.29
2023-06-19T23:39:55.387Z,27.29
2023-06-19T23:42:22.780Z,27.28
2023-06-19T23:44:50.188Z,27.28
2023-06-19T23:47:17.494Z,27.28
2023-06-19T23:49:44.997Z,27.28
2023-06-19T23:52:12.379Z,27.27
2023-06-19T23:54:39.617Z,27.28
2023-06-19T23:57:08.980Z,27.27
2023-06-19T23:59:36.567Z,27.27
